createdAt,value
2023-03-14T00:03:01.421Z,98898.28
2023-03-14T00:08:03.742Z,98750.88
2023-03-14T00:13:25.456Z,98888.59
2023-03-14T00:18:46.298Z,98841.09
2023-03-14T00:24:08.478Z,98879.88
2023-03-14T00:29:29.440Z,98835.00
2023-03-14T00:34:50.393Z,98910.28
2023-03-14T00:40:11.645Z,98792.47
2023-03-14T00:45:33.505Z,98824.97
2023-03-14T00:50:54.924Z,98785.00
2023-03-14T00:56:16.025Z,98818.72
2023-03-14T01:01:20.103Z,98863.75
2023-03-14T01:06:27.789Z,98814.13
2023-03-14T01:11:32.548Z,98716.84
2023-03-14T01:16:36.633Z,98831.06
2023-03-14T01:21:57.619Z,98535.91
2023-03-14T01:27:18.371Z,98781.78
2023-03-14T01:32:39.584Z,98768.84
2023-03-14T01:37:43.638Z,98778.03
2023-03-14T01:42:58.923Z,98734.03
2023-03-14T01:48:02.066Z,98737.25
2023-03-14T01:53:04.968Z,98679.88
2023-03-14T01:58:07.808Z,98020.28
2023-03-14T02:03:18.009Z,98696.38
2023-03-14T02:08:22.711Z,98711.59
2023-03-14T02:13:32.262Z,98655.78
2023-03-14T02:18:41.919Z,98695.16
2023-03-14T02:24:18.327Z,98677.00
2023-03-14T02:29:27.374Z,98622.00
2023-03-14T02:34:30.419Z,98689.25
2023-03-14T02:39:41.911Z,98647.00
2023-03-14T02:44:52.676Z,98605.47
2023-03-14T02:50:00.959Z,98634.56
2023-03-14T02:55:05.509Z,98672.16
2023-03-14T03:00:10.511Z,98659.88
2023-03-14T03:05:14.418Z,98566.38
2023-03-14T03:10:17.150Z,98644.03
2023-03-14T03:15:20.036Z,98607.69
2023-03-14T03:20:22.506Z,98417.38
2023-03-14T03:25:24.866Z,98609.75
2023-03-14T03:30:28.164Z,98526.28
2023-03-14T03:35:30.973Z,98477.13
2023-03-14T03:40:34.045Z,98357.03
2023-03-14T03:45:36.719Z,98534.81
2023-03-14T03:50:48.524Z,98563.97
2023-03-14T03:55:54.795Z,98551.66
2023-03-14T04:00:57.268Z,98492.41
2023-03-14T04:06:06.168Z,98517.88
2023-03-14T04:11:11.029Z,98434.13
2023-03-14T04:16:27.254Z,98184.53
2023-03-14T04:21:37.037Z,98370.47
2023-03-14T04:26:39.643Z,98415.66
2023-03-14T04:31:43.638Z,98394.78
2023-03-14T04:36:46.447Z,98370.13
2023-03-14T04:41:53.943Z,98420.72
2023-03-14T04:46:56.784Z,98449.63
2023-03-14T04:51:59.471Z,98427.91
2023-03-14T04:57:04.070Z,98392.28
2023-03-14T05:02:09.230Z,98467.22
2023-03-14T05:07:31.003Z,98391.03
2023-03-14T05:13:02.811Z,98346.78
2023-03-14T05:18:23.806Z,98404.47
2023-03-14T05:23:36.380Z,98379.47
2023-03-14T05:28:57.358Z,98447.31
2023-03-14T05:34:26.039Z,98279.41
2023-03-14T05:39:47.193Z,98453.78
2023-03-14T05:45:08.733Z,98419.31
2023-03-14T05:50:26.598Z,98315.22
2023-03-14T05:55:44.322Z,98470.44
2023-03-14T06:01:07.588Z,98447.16
2023-03-14T06:06:30.214Z,98479.50
2023-03-14T06:11:34.839Z,98473.63
2023-03-14T06:16:38.016Z,98414.88
2023-03-14T06:21:40.877Z,98425.50
2023-03-14T06:26:43.359Z,98452.47
2023-03-14T06:31:46.117Z,98464.22
2023-03-14T06:36:51.641Z,98484.00
2023-03-14T06:41:54.011Z,98464.44
2023-03-14T06:46:56.732Z,98385.59
2023-03-14T06:51:59.414Z,98434.53
2023-03-14T06:57:01.744Z,98440.81
2023-03-14T07:02:08.967Z,98422.44
2023-03-14T07:07:11.349Z,98422.28
2023-03-14T07:12:13.776Z,98443.94
2023-03-14T07:17:16.501Z,98386.44
2023-03-14T07:22:19.113Z,98465.66
2023-03-14T07:27:21.579Z,98456.31
2023-03-14T07:32:25.022Z,98413.81
2023-03-14T07:37:27.478Z,98455.84
2023-03-14T07:42:30.170Z,98449.72
2023-03-14T07:47:50.648Z,98469.03
2023-03-14T07:52:56.381Z,98453.69
2023-03-14T07:57:58.755Z,98439.72
2023-03-14T08:03:01.091Z,98421.63
2023-03-14T08:08:04.292Z,98406.88
2023-03-14T08:13:06.643Z,98482.56
2023-03-14T08:18:09.071Z,98454.81
2023-03-14T08:23:11.738Z,98427.06
2023-03-14T08:28:14.070Z,98441.13
2023-03-14T08:33:16.649Z,98319.53
2023-03-14T08:38:19.068Z,98417.84
2023-03-14T08:43:21.350Z,98457.19
2023-03-14T08:48:23.956Z,98471.06
2023-03-14T08:53:26.409Z,98382.72
2023-03-14T08:58:28.607Z,98462.69
2023-03-14T09:03:31.137Z,98442.00
2023-03-14T09:08:33.443Z,98337.13
2023-03-14T09:13:35.725Z,98383.88
2023-03-14T09:18:38.035Z,98461.41
2023-03-14T09:23:40.303Z,98378.88
2023-03-14T09:28:42.819Z,98453.53
2023-03-14T09:33:45.917Z,98428.47
2023-03-14T09:38:48.435Z,98425.63
2023-03-14T09:44:05.601Z,98304.41
2023-03-14T09:49:33.096Z,98466.78
2023-03-14T09:55:05.628Z,98480.06
2023-03-14T10:00:24.403Z,98434.78
2023-03-14T10:05:29.242Z,98468.78
2023-03-14T10:10:32.042Z,98462.75
2023-03-14T10:15:36.413Z,98449.63
2023-03-14T10:20:49.956Z,98346.38
2023-03-14T10:26:16.009Z,98474.91
2023-03-14T10:31:18.864Z,98411.56
2023-03-14T10:36:39.268Z,98426.47
2023-03-14T10:41:41.476Z,98289.56
2023-03-14T10:46:43.748Z,98330.41
2023-03-14T10:52:31.217Z,98412.41
2023-03-14T10:57:42.301Z,98380.41
2023-03-14T11:03:07.186Z,98258.13
2023-03-14T11:08:14.142Z,98342.28
2023-03-14T11:13:38.406Z,98345.94
2023-03-14T11:18:59.815Z,98402.47
2023-03-14T11:24:20.377Z,98418.22
2023-03-14T11:29:37.493Z,98366.03
2023-03-14T11:34:49.426Z,98370.66
2023-03-14T11:40:16.225Z,98428.97
2023-03-14T11:45:23.243Z,98396.91
2023-03-14T11:50:31.479Z,98287.56
2023-03-14T11:55:37.165Z,98261.16
2023-03-14T12:00:40.349Z,98405.44
2023-03-14T12:05:54.739Z,98466.25
2023-03-14T12:11:20.004Z,98420.34
2023-03-14T12:16:22.403Z,98440.47
2023-03-14T12:21:50.107Z,98423.09
2023-03-14T12:26:57.955Z,98425.59
2023-03-14T12:32:03.206Z,98464.66
2023-03-14T12:37:21.257Z,98360.66
2023-03-14T12:43:01.420Z,98451.91
2023-03-14T12:48:21.464Z,98374.81
2023-03-14T12:53:37.250Z,98438.34
2023-03-14T12:58:52.693Z,98414.91
2023-03-14T13:03:59.481Z,98373.13
2023-03-14T13:09:30.460Z,98446.16
2023-03-14T13:14:33.148Z,98322.91
2023-03-14T13:19:35.987Z,98456.44
2023-03-14T13:24:38.407Z,98436.47
2023-03-14T13:29:40.676Z,98459.94
2023-03-14T13:34:42.997Z,98394.75
2023-03-14T13:39:50.862Z,98466.00
2023-03-14T13:44:54.568Z,98459.09
2023-03-14T13:49:57.271Z,98467.78
2023-03-14T13:55:02.056Z,98433.13
2023-03-14T14:00:10.343Z,98394.13
2023-03-14T14:05:13.610Z,98414.84
2023-03-14T14:10:16.168Z,98442.59
2023-03-14T14:15:25.586Z,98456.50
2023-03-14T14:20:47.541Z,98414.00
2023-03-14T14:25:50.741Z,98409.56
2023-03-14T14:31:07.664Z,98477.28
2023-03-14T14:41:37.344Z,98472.06
2023-03-14T14:46:39.749Z,98440.84
2023-03-14T14:51:50.031Z,98470.31
2023-03-14T14:56:54.058Z,98455.72
2023-03-14T15:01:58.258Z,98460.91
2023-03-14T15:07:00.558Z,98447.75
2023-03-14T15:12:02.792Z,98439.09
2023-03-14T15:17:05.106Z,98428.66
2023-03-14T15:22:14.725Z,98450.38
2023-03-14T15:27:19.058Z,98452.97
2023-03-14T15:32:21.377Z,98390.53
2023-03-14T15:37:24.007Z,98490.22
2023-03-14T15:42:26.518Z,98366.13
2023-03-14T15:47:29.232Z,98458.94
2023-03-14T15:52:31.815Z,98478.88
2023-03-14T15:57:34.092Z,98473.63
2023-03-14T16:02:41.287Z,98480.50
2023-03-14T16:07:43.526Z,98522.13
2023-03-14T16:12:45.784Z,98485.59
2023-03-14T16:17:48.087Z,98483.69
2023-03-14T16:22:50.420Z,98506.22
2023-03-14T16:28:08.456Z,98552.19
2023-03-14T16:33:13.257Z,98542.50
2023-03-14T16:38:15.518Z,98507.78
2023-03-14T16:43:18.000Z,98436.59
2023-03-14T16:48:20.910Z,98493.84
2023-03-14T16:53:24.418Z,98564.13
2023-03-14T16:58:26.810Z,98563.31
2023-03-14T17:03:29.151Z,98513.88
2023-03-14T17:08:31.541Z,98556.41
2023-03-14T17:13:34.155Z,98499.84
2023-03-14T17:18:37.396Z,98556.31
2023-03-14T17:23:39.765Z,98473.69
2023-03-14T17:28:44.494Z,98566.63
2023-03-14T17:33:47.233Z,98561.44
2023-03-14T17:38:50.010Z,98529.34
2023-03-14T17:43:52.341Z,98535.34
2023-03-14T17:48:55.374Z,98537.94
2023-03-14T17:53:57.645Z,98556.88
2023-03-14T17:59:00.668Z,98385.88
2023-03-14T18:04:03.166Z,98533.59
2023-03-14T18:09:06.186Z,98493.50
2023-03-14T18:14:08.747Z,98568.88
2023-03-14T18:19:11.218Z,98572.50
2023-03-14T18:24:13.823Z,98446.72
2023-03-14T18:29:16.847Z,98484.88
2023-03-14T18:34:19.398Z,98558.69
2023-03-14T18:39:21.985Z,98563.00
2023-03-14T18:44:26.579Z,98554.41
2023-03-14T18:49:29.151Z,98533.50
2023-03-14T18:54:32.923Z,98569.06
2023-03-14T18:59:41.751Z,98479.56
2023-03-14T19:04:44.703Z,98549.09
2023-03-14T19:09:47.142Z,98572.50
2023-03-14T19:14:51.421Z,98582.00
2023-03-14T19:19:55.085Z,98596.66
2023-03-14T19:24:59.126Z,98524.50
2023-03-14T19:30:02.024Z,98434.13
2023-03-14T19:35:07.028Z,98600.16
2023-03-14T19:40:14.105Z,98513.13
2023-03-14T19:45:19.400Z,98563.59
2023-03-14T19:50:21.907Z,98601.88
2023-03-14T19:55:26.004Z,98474.91
2023-03-14T20:00:28.671Z,98574.94
2023-03-14T20:05:31.134Z,98565.16
2023-03-14T20:10:34.491Z,98594.75
2023-03-14T20:15:37.703Z,98566.13
2023-03-14T20:20:41.883Z,98560.81
2023-03-14T20:25:46.786Z,98614.66
2023-03-14T20:30:49.822Z,98612.91
2023-03-14T20:35:59.936Z,98525.13
2023-03-14T20:41:04.532Z,98420.00
2023-03-14T20:46:06.862Z,98555.47
2023-03-14T20:51:12.587Z,98607.69
2023-03-14T20:56:14.999Z,98498.88
2023-03-14T21:01:20.502Z,98575.44
2023-03-14T21:06:23.065Z,98551.88
2023-03-14T21:11:27.192Z,98563.16
2023-03-14T21:16:29.878Z,98604.03
2023-03-14T21:21:33.212Z,98624.03
2023-03-14T21:26:39.122Z,98624.94
2023-03-14T21:31:42.043Z,98505.94
2023-03-14T21:36:44.360Z,98509.34
2023-03-14T21:41:55.046Z,98569.44
2023-03-14T21:46:57.267Z,98525.03
2023-03-14T21:52:05.128Z,98599.00
2023-03-14T21:57:07.677Z,98591.13
2023-03-14T22:02:16.434Z,98601.69
2023-03-14T22:07:20.565Z,98617.16
2023-03-14T22:12:24.154Z,98627.72
2023-03-14T22:17:26.887Z,98573.00
2023-03-14T22:22:30.706Z,98519.00
2023-03-14T22:27:37.919Z,98586.81
2023-03-14T22:32:42.602Z,98620.75
2023-03-14T22:37:47.756Z,98578.06
2023-03-14T22:42:53.528Z,98613.69
2023-03-14T22:47:56.862Z,98609.31
2023-03-14T22:53:01.930Z,98622.22
2023-03-14T22:58:04.370Z,98603.97
2023-03-14T23:03:10.284Z,98612.78
2023-03-14T23:08:12.643Z,98630.09
2023-03-14T23:13:14.890Z,98598.66
2023-03-14T23:18:17.350Z,98621.25
2023-03-14T23:23:19.700Z,98636.94
2023-03-14T23:28:23.575Z,98640.41
2023-03-14T23:33:26.990Z,98581.22
2023-03-14T23:38:30.059Z,98592.59
2023-03-14T23:43:32.950Z,98590.84
2023-03-14T23:48:35.507Z,98617.78
2023-03-14T23:53:38.898Z,98626.38
2023-03-14T23:58:42.024Z,98639.44
